createdAt,value
2022-08-25T00:00:25.185Z,5.97
2022-08-25T00:05:33.572Z,6.40
2022-08-25T00:10:39.503Z,6.68
2022-08-25T00:15:42.660Z,6.47
2022-08-25T00:20:47.156Z,6.30
2022-08-25T00:25:52.939Z,6.13
2022-08-25T00:30:56.054Z,6.50
2022-08-25T00:36:00.874Z,6.33
2022-08-25T00:41:07.256Z,5.95
2022-08-25T00:46:12.195Z,6.50
2022-08-25T00:51:21.826Z,5.75
2022-08-25T00:56:26.497Z,6.10
2022-08-25T01:01:31.216Z,6.80
2022-08-25T01:06:38.666Z,6.00
2022-08-25T01:11:45.289Z,6.50
2022-08-25T01:16:51.250Z,5.93
2022-08-25T01:21:57.206Z,6.30
2022-08-25T01:27:00.251Z,6.60
2022-08-25T01:32:10.168Z,6.13
2022-08-25T01:37:15.623Z,6.20
2022-08-25T01:42:39.702Z,5.97
2022-08-25T01:47:42.816Z,5.60
2022-08-25T01:52:50.556Z,6.20
2022-08-25T01:57:54.052Z,5.90
2022-08-25T02:02:58.383Z,6.32
2022-08-25T02:08:02.727Z,6.00
2022-08-25T02:13:07.439Z,6.35
2022-08-25T02:18:12.192Z,6.03
2022-08-25T02:28:19.345Z,6.50
2022-08-25T02:33:23.254Z,6.40
2022-08-25T02:38:28.770Z,6.65
2022-08-25T02:43:31.896Z,6.57
2022-08-25T02:48:35.096Z,7.10
2022-08-25T02:53:40.585Z,6.35
2022-08-25T02:58:43.936Z,6.47
2022-08-25T03:03:48.350Z,6.47
2022-08-25T03:08:52.871Z,6.38
2022-08-25T03:13:57.289Z,6.63
2022-08-25T03:19:08.281Z,6.57
2022-08-25T03:24:11.396Z,6.63
2022-08-25T03:29:14.734Z,6.87
2022-08-25T03:34:20.170Z,6.65
2022-08-25T03:39:26.640Z,6.55
2022-08-25T03:44:29.874Z,6.97
2022-08-25T03:49:33.050Z,6.87
2022-08-25T03:54:37.801Z,6.63
2022-08-25T03:59:40.916Z,6.50
2022-08-25T04:04:44.544Z,7.20
2022-08-25T04:09:48.827Z,6.80
2022-08-25T04:14:52.048Z,7.17
2022-08-25T04:19:55.212Z,7.57
2022-08-25T04:25:00.025Z,7.23
2022-08-25T04:30:03.362Z,6.82
2022-08-25T04:35:06.943Z,7.20
2022-08-25T04:40:10.972Z,6.47
2022-08-25T04:45:14.026Z,7.15
2022-08-25T04:50:17.344Z,6.53
2022-08-25T04:55:21.310Z,6.90
2022-08-25T05:00:24.554Z,7.05
2022-08-25T05:05:27.698Z,6.70
2022-08-25T05:10:30.722Z,6.83
2022-08-25T05:15:51.834Z,6.53
2022-08-25T05:20:56.050Z,6.63
2022-08-25T05:31:06.928Z,6.75
2022-08-25T05:36:13.885Z,6.78
2022-08-25T05:41:20.203Z,6.43
2022-08-25T05:46:24.539Z,6.15
2022-08-25T05:51:27.640Z,5.85
2022-08-25T05:56:31.045Z,6.20
2022-08-25T06:01:52.601Z,6.63
2022-08-25T06:06:55.743Z,5.90
2022-08-25T06:11:59.092Z,6.00
2022-08-25T06:17:02.691Z,6.22
2022-08-25T06:22:06.013Z,5.83
2022-08-25T06:27:09.091Z,5.85
2022-08-25T06:32:12.203Z,6.77
2022-08-25T06:37:15.344Z,6.20
2022-08-25T06:42:18.511Z,6.20
2022-08-25T06:47:22.083Z,6.55
2022-08-25T06:52:29.141Z,5.93
2022-08-25T06:57:35.332Z,6.60
2022-08-25T07:02:39.362Z,5.70
2022-08-25T07:07:47.170Z,6.18
2022-08-25T07:12:52.646Z,6.10
2022-08-25T07:17:58.227Z,6.22
2022-08-25T07:23:02.847Z,5.93
2022-08-25T07:28:06.312Z,5.72
2022-08-25T07:33:12.999Z,6.40
2022-08-25T07:38:20.707Z,5.90
2022-08-25T07:43:24.573Z,5.90
2022-08-25T07:48:28.592Z,5.72
2022-08-25T07:53:41.010Z,5.45
2022-08-25T07:58:45.178Z,5.45
2022-08-25T08:03:51.212Z,5.82
2022-08-25T08:08:57.934Z,5.25
2022-08-25T08:14:03.110Z,5.25
2022-08-25T08:19:06.937Z,5.13
2022-08-25T08:24:31.214Z,5.60
2022-08-25T08:29:38.955Z,5.78
2022-08-25T08:34:42.584Z,5.47
2022-08-25T08:39:48.394Z,5.28
2022-08-25T08:50:11.507Z,5.50
2022-08-25T08:55:36.856Z,5.50
2022-08-25T09:00:48.921Z,5.50
2022-08-25T09:05:59.959Z,5.28
2022-08-25T09:11:18.902Z,5.80
2022-08-25T09:16:57.272Z,5.32
2022-08-25T09:46:15.850Z,5.03
2022-08-25T09:51:38.114Z,5.43
2022-08-25T09:56:50.489Z,5.47
2022-08-25T10:01:59.257Z,4.75
2022-08-25T10:07:21.198Z,5.20
2022-08-25T10:12:42.771Z,5.60
2022-08-25T10:39:01.594Z,5.22
2022-08-25T11:25:45.173Z,4.93
2022-08-25T11:30:48.965Z,4.60
2022-08-25T11:36:00.146Z,5.45
2022-08-25T11:41:16.847Z,5.20
2022-08-25T11:46:47.921Z,4.80
2022-08-25T11:51:52.128Z,4.78
2022-08-25T11:57:07.696Z,4.93
2022-08-25T12:02:30.947Z,4.88
2022-08-25T12:07:49.835Z,4.80
2022-08-25T12:13:02.825Z,4.55
2022-08-25T12:18:23.534Z,4.82
2022-08-25T12:23:36.091Z,4.70
2022-08-25T12:29:11.803Z,4.32
2022-08-25T12:34:55.021Z,4.55
2022-08-25T12:40:02.715Z,4.30
2022-08-25T12:45:21.256Z,4.00
2022-08-25T12:50:36.917Z,4.45
2022-08-25T12:55:47.426Z,4.63
2022-08-25T13:01:07.671Z,4.80
2022-08-25T13:06:39.904Z,4.40
2022-08-25T13:12:16.892Z,4.03
2022-08-25T13:17:36.358Z,4.40
2022-08-25T13:22:41.390Z,4.68
2022-08-25T13:27:49.853Z,4.38
2022-08-25T13:32:55.505Z,4.10
2022-08-25T13:38:20.350Z,4.40
2022-08-25T13:43:27.416Z,4.75
2022-08-25T13:48:49.121Z,4.95
2022-08-25T13:54:00.313Z,4.43
2022-08-25T13:59:06.305Z,4.60
2022-08-25T14:04:32.742Z,4.57
2022-08-25T14:15:01.041Z,5.57
2022-08-25T14:20:04.994Z,4.80
2022-08-25T14:25:08.577Z,3.72
2022-08-25T14:30:13.957Z,3.70
2022-08-25T14:35:19.183Z,3.78
2022-08-25T14:40:23.547Z,4.13
2022-08-25T14:45:27.597Z,4.18
2022-08-25T14:50:31.498Z,4.60
2022-08-25T14:55:36.939Z,4.20
2022-08-25T15:00:44.605Z,4.20
2022-08-25T15:05:48.209Z,3.90
2022-08-25T15:10:51.651Z,4.28
2022-08-25T15:15:58.062Z,4.55
2022-08-25T15:21:01.674Z,4.43
2022-08-25T15:26:05.430Z,4.28
2022-08-25T15:31:09.411Z,4.63
2022-08-25T15:36:16.856Z,4.35
2022-08-25T15:41:27.090Z,5.35
2022-08-25T15:46:31.559Z,4.85
2022-08-25T15:51:36.506Z,4.82
2022-08-25T15:56:40.506Z,4.65
2022-08-25T16:01:46.900Z,4.80
2022-08-25T16:06:50.711Z,4.75
2022-08-25T16:11:58.977Z,4.80
2022-08-25T16:17:06.949Z,4.90
2022-08-25T16:22:11.206Z,4.53
2022-08-25T16:27:15.231Z,4.85
2022-08-25T16:32:19.948Z,5.00
2022-08-25T16:37:27.141Z,4.60
2022-08-25T16:42:30.795Z,5.28
2022-08-25T16:47:38.629Z,6.05
2022-08-25T16:53:00.630Z,5.43
2022-08-25T16:58:03.907Z,5.40
2022-08-25T17:03:08.822Z,5.13
2022-08-25T17:08:33.139Z,5.40
2022-08-25T17:13:44.597Z,5.50
2022-08-25T17:18:48.328Z,6.03
2022-08-25T17:23:51.630Z,5.40
2022-08-25T17:33:58.663Z,5.90
2022-08-25T17:39:07.876Z,5.53
2022-08-25T17:44:10.670Z,5.57
2022-08-25T17:49:14.000Z,6.15
2022-08-25T17:54:18.270Z,6.55
2022-08-25T17:59:23.337Z,6.53
2022-08-25T18:04:27.290Z,6.78
2022-08-25T18:09:32.494Z,6.38
2022-08-25T18:14:35.476Z,6.80
2022-08-25T18:19:41.078Z,6.95
2022-08-25T18:24:43.775Z,7.28
2022-08-25T18:29:47.301Z,7.05
2022-08-25T18:34:50.089Z,7.20
2022-08-25T18:40:11.517Z,6.87
2022-08-25T18:45:14.536Z,7.10
2022-08-25T18:50:17.226Z,7.00
2022-08-25T18:55:22.789Z,7.20
2022-08-25T19:00:29.610Z,7.07
2022-08-25T19:05:35.452Z,7.50
2022-08-25T19:10:40.350Z,6.97
2022-08-25T19:15:45.450Z,7.75
2022-08-25T19:20:48.365Z,7.40
2022-08-25T19:25:51.121Z,7.70
2022-08-25T19:30:53.949Z,7.10
2022-08-25T19:35:56.900Z,7.83
2022-08-25T19:41:01.889Z,7.50
2022-08-25T19:46:04.624Z,7.40
2022-08-25T19:51:08.049Z,7.80
2022-08-25T19:56:14.396Z,7.47
2022-08-25T20:06:21.326Z,7.43
2022-08-25T20:11:25.716Z,7.90
2022-08-25T20:16:28.989Z,8.38
2022-08-25T20:21:33.128Z,6.95
2022-08-25T20:26:40.797Z,7.82
2022-08-25T20:31:46.393Z,7.95
2022-08-25T20:36:49.874Z,7.53
2022-08-25T20:42:12.447Z,7.82
2022-08-25T20:47:15.907Z,7.78
2022-08-25T20:52:20.872Z,7.65
2022-08-25T20:57:26.221Z,7.50
2022-08-25T21:02:30.268Z,7.22
2022-08-25T21:07:32.842Z,7.22
2022-08-25T21:12:39.818Z,7.25
2022-08-25T21:17:42.812Z,7.47
2022-08-25T21:22:46.032Z,7.22
2022-08-25T21:27:49.151Z,7.67
2022-08-25T21:32:54.069Z,7.82
2022-08-25T21:37:57.590Z,7.68
2022-08-25T21:43:00.273Z,8.07
2022-08-25T21:48:03.115Z,8.18
2022-08-25T21:53:07.489Z,8.20
2022-08-25T21:58:10.952Z,8.30
2022-08-25T22:03:13.639Z,8.70
2022-08-25T22:08:17.486Z,7.97
2022-08-25T22:13:22.485Z,7.97
2022-08-25T22:18:25.352Z,7.87
2022-08-25T22:23:29.374Z,7.93
2022-08-25T22:33:35.374Z,7.65
2022-08-25T22:38:38.129Z,7.23
2022-08-25T22:43:41.310Z,7.65
2022-08-25T22:48:46.164Z,8.07
2022-08-25T22:53:50.110Z,8.75
2022-08-25T22:58:53.267Z,7.57
2022-08-25T23:03:56.231Z,7.43
2022-08-25T23:08:59.630Z,7.87
2022-08-25T23:14:09.061Z,7.38
2022-08-25T23:19:14.255Z,7.80
2022-08-25T23:24:29.902Z,7.55
2022-08-25T23:29:36.548Z,7.15
2022-08-25T23:34:40.595Z,7.43
2022-08-25T23:39:46.245Z,8.18
2022-08-25T23:44:52.285Z,7.25
2022-08-25T23:49:55.327Z,8.05
2022-08-25T23:54:57.958Z,8.00
